Flight Track Log - Related Links

Times and Time Zones

All times are in EDT time to prevent confusion due to time zone crossing. See the N654DL flight status page for this flight to view local times or setup timezone preferences in your user account.

Time Position Orientation Groundspeed Altitude Reporting Facility
EDT Latitude Longitude Course Direction KTS MPH feet Rate Location/Type
Fri 10:05:35 AM 33.6569 -117.8797 90° East 146 168 37,000  Level Los Center
Fri 10:05:55 AM 33.6333 -117.8833 187° South 164 189 1,900 -33,344 Descending Southern TRACON
Fri 10:06:36 AM 33.6128 -117.8928 201° Southwest 165 190 3,100 1,515 Climbing Los Center
Fri 10:07:38 AM 33.5550 -117.8928 180° South 210 242 4,500 1,790 Climbing Los Center
Fri 10:08:00 AM 33.5136 -117.6051 54° Northeast  Level FlightAware
Fri 10:08:40 AM 33.5294 -117.8106 110° East 268 308 6,800  Level Los Center
Fri 10:09:00 AM 33.5697 -117.4576 68° East  Level FlightAware
Fri 10:09:41 AM 33.5444 -117.7186 79° East 280 322 9,800  Level Los Center
Fri 10:10:00 AM 33.5833 -117.2984 90° East  Level FlightAware
Fri 10:10:43 AM 33.5656 -117.5925 79° East 317 365 11,500  Level Los Center
Fri 10:11:45 AM 33.5822 -117.4714 81° East 362 417 14,300 2,098 Climbing Los Center
Fri 10:12:46 AM 33.5892 -117.3431 86° East 387 445 15,800 1,707 Climbing Los Center
Fri 10:13:48 AM 33.5933 -117.2100 88° East 400 460 17,800 1,887 Climbing Los Center
Fri 10:14:50 AM 33.5986 -117.0703 87° East 417 480 19,700 1,644 Climbing Los Center
Fri 10:16:03 AM 33.6042 -116.9258 87° East 432 497 21,500 1,467 Climbing Los Center
Fri 10:17:05 AM 33.6103 -116.7219 88° East 449 517 23,000 726 Climbing Los Center
Fri 10:18:07 AM 33.6161 -116.5656 87° East 464 534 23,000  Level Los Center
Fri 10:19:09 AM 33.6208 -116.4139 88° East 456 525 23,000  Level Los Center
Fri 10:20:10 AM 33.6247 -116.2628 88° East 452 520 23,000 341 Level Los Center
Fri 10:21:12 AM 33.6344 -116.1089 86° East 461 531 23,700 1,065 Climbing Los Center
Fri 10:22:14 AM 33.6547 -115.9869 79° East 465 535 25,200 1,403 Climbing Los Center
Fri 10:23:16 AM 33.6847 -115.8033 79° East 467 537 26,600 1,220 Climbing Los Center
Fri 10:24:17 AM 33.7111 -115.6450 79° East 478 550 27,700 1,220 Climbing Los Center
Fri 10:25:19 AM 33.7417 -115.4475 79° East 497 572 29,100 1,500 Climbing Los Center
Fri 10:26:21 AM 33.7678 -115.2847 79° East 498 573 30,800 1,403 Climbing Los Center
Fri 10:27:23 AM 33.7928 -115.1214 80° East 498 573 32,000 1,065 Climbing Los Center
Fri 10:28:25 AM 33.8183 -114.9597 79° East 493 567 33,000 1,122 Climbing Los Center
Fri 10:29:26 AM 33.8447 -114.7947 79° East 502 578 34,300 1,030 Climbing Los Center
Fri 10:31:14 AM 33.8897 -114.5086 79° East 495 570 35,900 871 Climbing Albuquerque Center
Fri 10:31:30 AM 33.8944 -114.4722 81° East 493 567 36,100 677 Climbing Los Center
Fri 10:32:16 AM 33.9156 -114.3428 79° East 502 578 36,600 500 Climbing Albuquerque Center
Fri 10:33:18 AM 33.9408 -114.1636 80° East 496 571 37,000 195 Climbing Albuquerque Center
Fri 10:34:19 AM 33.9642 -114.0003 80° East 497 572 37,000  Level Albuquerque Center
Fri 10:35:21 AM 33.9892 -113.8353 80° East 500 575 37,000  Level Albuquerque Center
Fri 10:36:23 AM 34.0122 -113.6697 80° East 502 578 37,000  Level Albuquerque Center
Fri 10:37:24 AM 34.0361 -113.5036 80° East 503 579 37,000  Level Albuquerque Center
Fri 10:38:26 AM 34.0647 -113.3036 80° East 504 580 37,000  Level Albuquerque Center
Fri 10:39:28 AM 34.0878 -113.1350 81° East 507 583 37,000  Level Albuquerque Center
Fri 10:40:30 AM 34.1106 -112.9700 80° East 502 578 37,000  Level Albuquerque Center
Fri 10:41:32 AM 34.1333 -112.8036 81° East 502 578 37,000  Level Albuquerque Center
Fri 10:42:33 AM 34.1517 -112.6358 82° East 504 580 37,000  Level Albuquerque Center
Fri 10:43:35 AM 34.1653 -112.4686 84° East 502 578 37,000  Level Albuquerque Center
Fri 10:44:37 AM 34.1803 -112.3011 84° East 501 577 37,000  Level Albuquerque Center
Fri 10:45:39 AM 34.1983 -112.0992 84° East 501 577 37,000  Level Albuquerque Center
Fri 10:46:41 AM 34.2125 -111.9478 84° East 501 577 37,000  Level Albuquerque Center
Fri 10:47:42 AM 34.2300 -111.7508 84° East 502 578 37,000  Level Albuquerque Center
Fri 10:48:44 AM 34.2422 -111.5892 85° East 503 579 37,000  Level Albuquerque Center
Fri 10:49:46 AM 34.2569 -111.4189 84° East 506 582 37,000  Level Albuquerque Center
Fri 10:50:48 AM 34.2714 -111.2483 84° East 507 583 37,000  Level Albuquerque Center
Fri 10:51:50 AM 34.2850 -111.0797 84° East 507 583 37,000  Level Albuquerque Center
Fri 10:52:52 AM 34.2981 -110.9092 85° East 508 585 37,000  Level Albuquerque Center
Fri 10:53:54 AM 34.3150 -110.7050 84° East 508 585 37,000  Level Albuquerque Center
Fri 10:54:56 AM 34.3281 -110.5353 85° East 507 583 37,000  Level Albuquerque Center
Fri 10:55:58 AM 34.3419 -110.3575 85° East 510 587 37,000  Level Albuquerque Center
Fri 10:57:00 AM 34.3528 -110.1933 85° East 512 589 37,000  Level Albuquerque Center
Fri 10:58:02 AM 34.3658 -110.0017 85° East 512 589 37,000  Level Albuquerque Center
Fri 10:59:04 AM 34.3781 -109.8364 85° East 514 592 37,000  Level Albuquerque Center
Fri 11:00:06 AM 34.3911 -109.6425 85° East 518 596 37,000  Level Albuquerque Center
Fri 11:01:08 AM 34.4022 -109.4803 85° East 512 589 37,000  Level Albuquerque Center
Fri 11:02:10 AM 34.4150 -109.2858 85° East 515 593 37,000  Level Albuquerque Center
Fri 11:03:12 AM 34.4286 -109.1189 84° East 519 597 37,000  Level Albuquerque Center
Fri 11:04:14 AM 34.4583 -108.9297 79° East 517 595 37,000  Level Albuquerque Center
Fri 11:05:16 AM 34.4842 -108.7667 79° East 516 594 37,000  Level Albuquerque Center
Fri 11:06:18 AM 34.5150 -108.5758 79° East 517 595 37,000  Level Albuquerque Center
Fri 11:07:21 AM 34.5394 -108.4161 79° East 515 593 37,000  Level Albuquerque Center
Fri 11:08:22 AM 34.5661 -108.2472 79° East 513 590 37,000  Level Albuquerque Center
Fri 11:09:24 AM 34.5919 -108.0775 79° East 513 590 37,000  Level Albuquerque Center
Fri 11:10:26 AM 34.6169 -107.9078 80° East 512 589 37,000  Level Albuquerque Center
Fri 11:11:28 AM 34.6475 -107.7025 80° East 515 593 37,000  Level Albuquerque Center
Fri 11:12:30 AM 34.6725 -107.5319 80° East 515 593 37,000  Level Albuquerque Center
Fri 11:13:32 AM 34.6978 -107.3625 80° East 515 593 37,000  Level Albuquerque Center
Fri 11:14:34 AM 34.7206 -107.1914 81° East 515 593 37,000  Level Albuquerque Center
Fri 11:15:36 AM 34.7450 -107.0219 80° East 515 593 37,000  Level Albuquerque Center
Fri 11:16:38 AM 34.7744 -106.8172 80° East 519 597 37,000  Level Albuquerque Center
Fri 11:17:40 AM 34.7961 -106.6475 81° East 516 594 37,000  Level Albuquerque Center
Fri 11:18:42 AM 34.8208 -106.4789 80° East 514 592 37,000  Level Albuquerque Center
Fri 11:19:45 AM 34.8436 -106.3083 81° East 514 592 37,000  Level Albuquerque Center
Fri 11:20:47 AM 34.8661 -106.1364 81° East 516 594 37,000  Level Albuquerque Center
Fri 11:21:49 AM 34.8931 -105.9317 81° East 514 592 37,000  Level Albuquerque Center
Fri 11:22:51 AM 34.9161 -105.7711 80° East 511 588 37,000  Level Albuquerque Center
Fri 11:23:53 AM 34.9383 -105.5983 81° East 512 589 37,000  Level Albuquerque Center
Fri 11:24:55 AM 34.9642 -105.3944 81° East 515 593 37,000  Level Albuquerque Center
Fri 11:25:57 AM 34.9872 -105.2197 81° East 517 595 37,000  Level Albuquerque Center
Fri 11:26:59 AM 35.0097 -105.0458 81° East 516 594 37,000  Level Albuquerque Center
Fri 11:28:01 AM 35.0314 -104.8706 81° East 517 595 37,000  Level Albuquerque Center
Fri 11:29:03 AM 35.0528 -104.6953 81° East 519 597 37,000  Level Albuquerque Center
Fri 11:30:05 AM 35.0786 -104.4931 81° East 520 598 37,000  Level Albuquerque Center
Fri 11:31:07 AM 35.0983 -104.3311 81° East 524 603 37,000  Level Albuquerque Center
Fri 11:32:09 AM 35.1192 -104.1517 82° East 531 611 37,000  Level Albuquerque Center
Fri 11:33:11 AM 35.1400 -103.9753 82° East 528 608 37,000  Level Albuquerque Center
Fri 11:34:13 AM 35.1614 -103.7842 82° East 528 608 37,000  Level Albuquerque Center
Fri 11:35:15 AM 35.1817 -103.6064 82° East 526 605 37,000  Level Albuquerque Center
Fri 11:36:17 AM 35.1953 -103.3978 85° East 525 604 37,000  Level Albuquerque Center
Fri 11:37:19 AM 35.2036 -103.2206 87° East 520 598 37,000  Level Albuquerque Center
Fri 11:38:21 AM 35.2131 -103.0431 86° East 520 598 37,000  Level Albuquerque Center
Fri 11:39:23 AM 35.2211 -102.8800 86° East 522 601 37,000  Level Albuquerque Center
Fri 11:40:25 AM 35.2314 -102.6678 87° East 523 602 37,000  Level Albuquerque Center
Fri 11:41:27 AM 35.2400 -102.4892 87° East 526 605 37,000  Level Albuquerque Center
Fri 11:42:29 AM 35.2489 -102.3097 86° East 529 609 37,000  Level Albuquerque Center
Fri 11:43:31 AM 35.2569 -102.1303 87° East 529 609 37,000  Level Albuquerque Center
Fri 11:44:33 AM 35.2658 -101.9308 87° East 530 610 37,000  Level Albuquerque Center
Fri 11:45:36 AM 35.2761 -101.7500 86° East 530 610 37,000  Level Albuquerque Center
Fri 11:46:38 AM 35.2853 -101.5839 86° East 528 608 37,000  Level Albuquerque Center
Fri 11:47:40 AM 35.2894 -101.4042 88° East 527 606 37,000  Level Albuquerque Center
Fri 11:48:42 AM 35.2964 -101.2186 87° East 527 606 37,000  Level Albuquerque Center
Fri 11:49:44 AM 35.3047 -101.0056 87° East 523 602 37,000  Level Albuquerque Center
Fri 11:50:46 AM 35.3114 -100.8278 87° East 523 602 37,000  Level Albuquerque Center
Fri 11:51:48 AM 35.3169 -100.6558 88° East 521 600 37,000  Level Albuquerque Center
Fri 11:52:50 AM 35.3236 -100.4778 87° East 522 601 37,000  Level Albuquerque Center
Fri 11:53:52 AM 35.3275 -100.3006 88° East 521 600 37,000  Level Albuquerque Center
Fri 11:54:54 AM 35.3339 -100.0883 88° East 521 600 37,000  Level Albuquerque Center
Fri 11:55:56 AM 35.3386 -99.9094 88° East 525 604 37,000  Level Albuquerque Center
Fri 11:56:58 AM 35.3439 -99.7333 88° East 521 600 37,000  Level Albuquerque Center
Fri 11:58:00 AM 35.3478 -99.5547 88° East 524 603 37,000  Level Albuquerque Center
Fri 11:59:02 AM 35.3497 -99.3769 89° East 525 604 37,000  Level Albuquerque Center
Fri 11:59:55 AM 35.3497 -99.1978 90° East 513 590 37,000  Level Fort Center
Fri 12:00:55 PM 35.3500 -99.0194 90° East 513 590 37,000 400 Level Fort Center
Fri 12:01:55 PM 35.3625 -98.8417 85° East 513 590 37,800 750 Climbing Fort Center
Fri 12:02:55 PM 35.3894 -98.6664 79° East 513 590 38,500 600 Climbing Fort Center
Fri 12:03:55 PM 35.4183 -98.4911 79° East 518 596 39,000 250 Climbing Fort Center
Fri 12:04:55 PM 35.4425 -98.3358 79° East 523 602 39,000  Level Fort Center
Fri 12:05:55 PM 35.4706 -98.1631 79° East 523 602 39,000  Level Fort Center
Fri 12:07:18 PM 35.4992 -97.9158 82° East 527 606 39,000  Level Fort Center
Fri 12:08:18 PM 35.5017 -97.7400 89° East 515 593 39,000  Level Fort Center
Fri 12:09:18 PM 35.4978 -97.5614 91° East 515 593 39,000  Level Fort Center
Fri 12:10:18 PM 35.4939 -97.3575 91° East 521 600 39,000  Level Fort Center
Fri 12:11:18 PM 35.4894 -97.1714 92° East 534 615 39,000  Level Fort Center
Fri 12:12:19 PM 35.4828 -96.9956 93° East 534 615 39,000  Level Fort Center
Fri 12:13:18 PM 35.4778 -96.8197 92° East 524 603 39,000  Level Fort Center
Fri 12:14:18 PM 35.4728 -96.6439 92° East 518 596 39,000  Level Fort Center
Fri 12:15:19 PM 35.4694 -96.4656 91° East 518 596 39,000  Level Fort Center
Fri 12:16:19 PM 35.4639 -96.2897 92° East 513 590 39,000  Level Fort Center
Fri 12:17:18 PM 35.4578 -96.1139 92° East 513 590 39,000  Level Fort Center
Fri 12:18:18 PM 35.4519 -95.9381 92° East 513 590 39,000  Level Fort Center
Fri 12:19:55 PM 35.4456 -95.6919 92° East 518 596 39,000  Level Kansas Center
Fri 12:20:21 PM 35.4403 -95.5811 93° East 519 597 39,000  Level Memphis Center
Fri 12:21:21 PM 35.4350 -95.4050 92° East 519 597 39,000  Level Memphis Center
Fri 12:22:21 PM 35.4275 -95.2286 93° East 519 597 39,000  Level Memphis Center
Fri 12:23:21 PM 35.4211 -95.0653 93° East 519 597 39,000  Level Memphis Center
Fri 12:24:21 PM 35.4131 -94.8892 93° East 524 603 39,000  Level Memphis Center
Fri 12:25:21 PM 35.4050 -94.7103 93° East 524 603 39,000  Level Memphis Center
Fri 12:26:21 PM 35.3964 -94.5317 93° East 524 603 39,000  Level Memphis Center
Fri 12:27:21 PM 35.3878 -94.3503 93° East 518 596 39,000  Level Memphis Center
Fri 12:28:21 PM 35.3789 -94.1717 93° East 523 602 39,000  Level Memphis Center
Fri 12:29:21 PM 35.3675 -93.9903 94° East 529 609 39,000  Level Memphis Center
Fri 12:30:21 PM 35.3539 -93.8142 95° East 529 609 39,000  Level Memphis Center
Fri 12:31:21 PM 35.3419 -93.6381 95° East 523 602 39,000  Level Memphis Center
Fri 12:32:22 PM 35.3297 -93.4619 95° East 523 602 39,000  Level Memphis Center
Fri 12:33:21 PM 35.3175 -93.2758 95° East 517 595 39,000  Level Memphis Center
Fri 12:34:21 PM 35.3006 -93.0969 97° East 517 595 39,000  Level Memphis Center
Fri 12:35:21 PM 35.2858 -92.9186 96° East 517 595 39,000  Level Memphis Center
Fri 12:36:21 PM 35.2725 -92.7478 95° East 522 601 39,000  Level Memphis Center
Fri 12:37:21 PM 35.2214 -92.5786 110° East 522 601 39,000  Level Memphis Center
Fri 12:38:21 PM 35.1678 -92.4222 113° Southeast 516 594 39,000  Level Memphis Center
Fri 12:39:21 PM 35.1139 -92.2633 112° Southeast 504 580 39,000  Level Memphis Center
Fri 12:40:21 PM 35.1017 -92.0958 95° East 484 557 39,000  Level Memphis Center
Fri 12:41:21 PM 35.0956 -91.9231 92° East 495 570 39,000  Level Memphis Center
Fri 12:42:21 PM 35.0914 -91.7478 92° East 507 583 39,000  Level Memphis Center
Fri 12:43:21 PM 35.0828 -91.5675 93° East 518 596 39,000  Level Memphis Center
Fri 12:44:21 PM 35.0783 -91.3922 92° East 518 596 39,000  Level Memphis Center
Fri 12:45:21 PM 35.0733 -91.2172 92° East 513 590 39,000  Level Memphis Center
Fri 12:46:21 PM 35.0661 -91.0447 93° East 520 598 39,000  Level Memphis Center
Fri 12:47:21 PM 35.0586 -90.8644 93° East 520 598 39,000  Level Memphis Center
Fri 12:48:21 PM 35.0508 -90.6894 93° East 512 589 39,000  Level Memphis Center
Fri 12:49:21 PM 35.0428 -90.5322 94° East 519 597 39,000  Level Memphis Center
Fri 12:50:21 PM 35.0344 -90.3544 93° East 519 597 39,000  Level Memphis Center
Fri 12:51:21 PM 35.0261 -90.1769 93° East 519 597 39,000  Level Memphis Center
Fri 12:52:21 PM 35.0172 -89.9994 93° East 519 597 39,000  Level Memphis Center
Fri 12:53:21 PM 34.9997 -89.8069 96° East 519 597 39,000  Level Memphis Center
Fri 12:54:21 PM 34.9675 -89.6222 102° East 536 617 39,000  Level Memphis Center
Fri 12:55:21 PM 34.9372 -89.4478 102° East 541 623 39,000  Level Memphis Center
Fri 12:56:21 PM 34.9108 -89.2783 101° East 521 600 39,000  Level Memphis Center
Fri 12:57:21 PM 34.8842 -89.1064 101° East 521 600 39,000 -50 Level Memphis Center
Fri 12:58:21 PM 34.8617 -88.9525 100° East 516 594 38,900 -900 Descending Memphis Center
Fri 12:59:21 PM 34.8344 -88.7808 101° East 521 600 37,200 -1,450 Descending Memphis Center
Fri 01:00:21 PM 34.8072 -88.6044 101° East 526 605 36,000 -1,150 Descending Memphis Center
Fri 01:01:21 PM 34.7817 -88.4356 100° East 521 600 34,900 -1,000 Descending Memphis Center
Fri 01:02:21 PM 34.7517 -88.2617 102° East 521 600 34,000 -900 Descending Memphis Center
Fri 01:03:21 PM 34.7233 -88.0781 101° East 541 623 33,100 -500 Descending Memphis Center
Fri 01:04:21 PM 34.6947 -87.8892 100° East 535 616 33,000 -50 Descending Memphis Center
Fri 01:05:21 PM 34.6664 -87.7183 101° East 521 600 33,000  Level Memphis Center
Fri 01:06:21 PM 34.6375 -87.5478 102° East 516 594 33,000  Level Memphis Center
Fri 01:07:53 PM 34.5944 -87.2914 101° East 489 563 33,000  Level Atlanta Center
Fri 01:08:53 PM 34.5611 -87.1236 104° East 494 568 33,000  Level Atlanta Center
Fri 01:09:53 PM 34.5278 -86.9533 103° East 499 574 33,000 -350 Level Atlanta Center
Fri 01:10:53 PM 34.5000 -86.8039 103° East 504 580 32,300 -1,000 Descending Atlanta Center
Fri 01:11:53 PM 34.4681 -86.6364 103° East 504 580 31,000 -1,250 Descending Atlanta Center
Fri 01:12:53 PM 34.4342 -86.4642 103° East 514 592 29,800 -1,200 Descending Atlanta Center
Fri 01:13:53 PM 34.4017 -86.2969 103° East 514 592 28,600 -1,250 Descending Atlanta Center
Fri 01:14:53 PM 34.3692 -86.1275 103° East 514 592 27,300 -1,400 Descending Atlanta Center
Fri 01:15:53 PM 34.3364 -85.9633 104° East 514 592 25,800 -2,250 Descending Atlanta Center
Fri 01:16:53 PM 34.3033 -85.8017 104° East 509 586 22,800 -2,600 Descending Atlanta Center
Fri 01:17:53 PM 34.2722 -85.6425 103° East 491 565 20,600 -2,150 Descending Atlanta Center
Fri 01:18:53 PM 34.2408 -85.4911 104° East 470 541 18,500 -1,900 Descending Atlanta Center
Fri 01:19:53 PM 34.2131 -85.3525 104° East 440 506 16,800 -1,900 Descending Atlanta Center
Fri 01:20:53 PM 34.1811 -85.2139 106° East 424 488 14,700 -1,750 Descending Atlanta Center
Fri 01:21:53 PM 34.1383 -85.0828 111° Southeast 407 468 13,300 -850 Descending Atlanta Center
Fri 01:22:53 PM 34.0703 -84.9992 134° Southeast 364 419 13,000 -850 Descending Atlanta Center
Fri 01:23:53 PM 34.0081 -84.9233 135° Southeast 335 386 11,600 -1,350 Descending Atlanta Center
Fri 01:24:53 PM 33.9247 -84.9050 170° South 301 346 10,300 -1,300 Descending Atlanta Center
Fri 01:25:53 PM 33.8433 -84.8992 177° South 289 333 9,000 -1,250 Descending Atlanta Center
Fri 01:26:53 PM 33.7642 -84.8933 176° South 289 333 7,800 -1,000 Descending Atlanta Center
Fri 01:27:53 PM 33.6869 -84.8875 176° South 289 333 7,000 -471 Descending Atlanta Center
Fri 01:28:35 PM 33.6500 -84.8500 140° Southeast 274 315 7,000 -500 Level Atlanta TRACON
Fri 01:29:41 PM 33.6333 -84.7500 101° East 249 287 6,100 -1,050 Descending Atlanta TRACON
Fri 01:30:35 PM 33.6333 -84.6833 90° East 220 253 4,900 -1,333 Descending Atlanta TRACON

Login

Don't have an account? Register now (free) for customized features, flight alerts, and more!